createdAt,value
2023-10-18T00:00:30.173Z,99001.77
2023-10-18T00:03:19.832Z,98999.83
2023-10-18T00:05:48.744Z,98997.53
2023-10-18T00:08:18.585Z,98997.30
2023-10-18T00:10:48.171Z,98999.10
2023-10-18T00:13:16.721Z,98990.23
2023-10-18T00:15:45.236Z,98991.87
2023-10-18T00:18:13.869Z,98990.59
2023-10-18T00:20:42.424Z,98988.11
2023-10-18T00:23:11.921Z,98990.14
2023-10-18T00:25:40.411Z,98991.14
2023-10-18T00:28:11.659Z,98990.65
2023-10-18T00:30:40.664Z,98986.09
2023-10-18T00:33:09.349Z,98983.96
2023-10-18T00:35:38.124Z,98979.31
2023-10-18T00:38:10.899Z,98979.13
2023-10-18T00:40:42.131Z,98983.33
2023-10-18T00:43:28.628Z,98987.63
2023-10-18T00:45:57.394Z,98987.45
2023-10-18T00:48:31.791Z,98982.25
2023-10-18T00:51:00.998Z,98977.38
2023-10-18T00:53:34.976Z,98982.78
2023-10-18T00:56:08.501Z,98986.10
2023-10-18T00:58:40.441Z,98981.15
2023-10-18T01:01:12.828Z,98978.18
2023-10-18T01:03:52.375Z,98974.64
2023-10-18T01:06:28.670Z,98966.77
2023-10-18T01:08:57.856Z,98971.30
2023-10-18T01:11:30.238Z,98969.43
2023-10-18T01:14:02.151Z,98962.52
2023-10-18T01:16:36.592Z,98963.81
2023-10-18T01:19:10.512Z,98961.63
2023-10-18T01:21:47.407Z,98963.09
2023-10-18T01:24:16.459Z,98967.09
2023-10-18T01:26:45.763Z,98968.02
2023-10-18T01:29:15.230Z,98965.53
2023-10-18T01:31:47.660Z,98958.92
2023-10-18T01:34:16.643Z,98956.70
2023-10-18T01:36:45.558Z,98948.52
2023-10-18T01:39:22.253Z,98951.29
2023-10-18T01:41:52.707Z,98951.10
2023-10-18T01:44:37.269Z,98952.14
2023-10-18T01:47:10.463Z,98953.52
2023-10-18T01:49:57.032Z,98950.73
2023-10-18T01:52:26.395Z,98950.17
2023-10-18T01:54:55.637Z,98946.05
2023-10-18T01:57:24.219Z,98944.77
2023-10-18T01:59:52.801Z,98941.35
2023-10-18T02:02:22.395Z,98937.84
2023-10-18T02:04:54.453Z,98934.86
2023-10-18T02:07:23.818Z,98938.91
2023-10-18T02:09:59.842Z,98935.42
2023-10-18T02:12:30.334Z,98936.47
2023-10-18T02:14:58.712Z,98933.77
2023-10-18T02:17:28.848Z,98933.52
2023-10-18T02:20:01.345Z,98933.85
2023-10-18T02:22:30.141Z,98933.12
2023-10-18T02:24:58.726Z,98926.41
2023-10-18T02:27:30.145Z,98925.02
2023-10-18T02:29:58.723Z,98924.62
2023-10-18T02:32:34.678Z,98923.42
2023-10-18T02:35:06.301Z,98921.05
2023-10-18T02:37:35.057Z,98916.65
2023-10-18T02:40:10.421Z,98912.44
2023-10-18T02:42:39.360Z,98912.94
2023-10-18T02:45:15.477Z,98909.38
2023-10-18T02:47:44.377Z,98906.13
2023-10-18T02:50:16.282Z,98904.66
2023-10-18T02:52:47.769Z,98909.13
2023-10-18T02:55:20.494Z,98908.79
2023-10-18T02:57:49.896Z,98906.04
2023-10-18T03:00:19.288Z,98906.94
2023-10-18T03:02:50.311Z,98905.45
2023-10-18T03:05:21.838Z,98906.10
2023-10-18T03:07:50.510Z,98905.19
2023-10-18T03:10:29.433Z,98907.20
2023-10-18T03:12:59.865Z,98909.27
2023-10-18T03:15:29.949Z,98915.82
2023-10-18T03:17:58.617Z,98913.98
2023-10-18T03:20:28.365Z,98913.99
2023-10-18T03:22:57.215Z,98916.45
2023-10-18T03:25:28.637Z,98914.08
2023-10-18T03:28:06.268Z,98914.98
2023-10-18T03:30:46.956Z,98914.60
2023-10-18T03:33:17.096Z,98919.35
2023-10-18T03:36:20.166Z,98919.38
2023-10-18T03:39:01.661Z,98913.62
2023-10-18T03:41:34.685Z,98909.20
2023-10-18T03:44:08.509Z,98906.48
2023-10-18T03:46:40.988Z,98901.00
2023-10-18T03:49:12.152Z,98898.99
2023-10-18T03:51:42.122Z,98900.25
2023-10-18T03:54:14.807Z,98899.80
2023-10-18T03:56:46.471Z,98895.45
2023-10-18T03:59:21.830Z,98896.15
2023-10-18T04:02:05.923Z,98892.36
2023-10-18T04:04:46.097Z,98884.33
2023-10-18T04:07:25.933Z,98880.29
2023-10-18T04:09:55.772Z,98874.14
2023-10-18T04:12:24.551Z,98867.65
2023-10-18T04:15:16.552Z,98866.22
2023-10-18T04:17:45.078Z,98861.23
2023-10-18T04:20:22.614Z,98860.07
2023-10-18T04:22:54.461Z,98863.31
2023-10-18T04:25:28.948Z,98859.52
2023-10-18T04:27:59.558Z,98864.10
2023-10-18T04:30:32.490Z,98860.82
2023-10-18T04:33:21.602Z,98855.56
2023-10-18T04:35:54.131Z,98850.17
2023-10-18T04:38:31.655Z,98850.86
2023-10-18T04:41:02.952Z,98857.48
2023-10-18T04:43:34.337Z,98859.22
2023-10-18T04:46:16.496Z,98862.50
2023-10-18T04:48:52.398Z,98855.03
2023-10-18T04:51:29.102Z,98857.11
2023-10-18T04:53:59.236Z,98856.06
2023-10-18T04:56:39.831Z,98853.77
2023-10-18T04:59:12.965Z,98855.80
2023-10-18T05:01:54.144Z,98857.36
2023-10-18T05:04:34.254Z,98860.55
2023-10-18T05:07:16.866Z,98860.77
2023-10-18T05:09:46.821Z,98865.09
2023-10-18T05:12:18.179Z,98862.27
2023-10-18T05:15:07.364Z,98860.83
2023-10-18T05:17:44.276Z,98864.32
2023-10-18T05:20:26.978Z,98861.23
2023-10-18T05:23:00.613Z,98857.15
2023-10-18T05:25:35.813Z,98857.20
2023-10-18T05:28:11.112Z,98851.63
2023-10-18T05:30:59.355Z,98851.38
2023-10-18T05:33:49.290Z,98854.02
2023-10-18T05:36:20.934Z,98852.28
2023-10-18T05:38:50.043Z,98858.66
2023-10-18T05:41:29.890Z,98859.11
2023-10-18T05:44:02.887Z,98859.45
2023-10-18T05:46:36.927Z,98856.66
2023-10-18T05:49:15.467Z,98858.71
2023-10-18T05:52:13.687Z,98859.08
2023-10-18T05:54:45.515Z,98860.73
2023-10-18T05:57:18.123Z,98859.14
2023-10-18T05:59:50.547Z,98861.45
2023-10-18T06:02:25.281Z,98864.50
2023-10-18T06:04:58.113Z,98860.75
2023-10-18T06:07:28.413Z,98857.02
2023-10-18T06:09:57.111Z,98859.52
2023-10-18T06:12:32.187Z,98862.17
2023-10-18T06:15:15.569Z,98864.23
2023-10-18T06:17:49.419Z,98866.43
2023-10-18T06:20:31.221Z,98862.45
2023-10-18T06:23:18.962Z,98858.55
2023-10-18T06:25:53.427Z,98860.90
2023-10-18T06:28:22.911Z,98857.91
2023-10-18T06:30:58.465Z,98859.68
2023-10-18T06:33:36.840Z,98857.52
2023-10-18T06:36:14.654Z,98863.25
2023-10-18T06:38:44.880Z,98867.74
2023-10-18T06:41:20.345Z,98864.30
2023-10-18T06:43:50.722Z,98862.95
2023-10-18T06:46:34.406Z,98857.84
2023-10-18T06:49:12.658Z,98859.66
2023-10-18T06:51:51.553Z,98860.11
2023-10-18T06:54:33.794Z,98861.05
2023-10-18T06:57:31.644Z,98858.59
2023-10-18T07:00:00.791Z,98859.29
2023-10-18T07:02:29.496Z,98856.98
2023-10-18T07:04:59.884Z,98853.30
2023-10-18T07:07:30.401Z,98858.52
2023-10-18T07:10:00.172Z,98858.66
2023-10-18T07:12:29.376Z,98855.26
2023-10-18T07:15:02.153Z,98856.52
2023-10-18T07:17:31.618Z,98855.33
2023-10-18T07:20:00.201Z,98856.02
2023-10-18T07:22:45.583Z,98855.20
2023-10-18T07:25:22.165Z,98861.48
2023-10-18T07:27:52.210Z,98862.33
2023-10-18T07:30:20.700Z,98864.73
2023-10-18T07:32:49.707Z,98866.64
2023-10-18T07:35:32.934Z,98869.17
2023-10-18T07:38:01.456Z,98870.12
2023-10-18T07:40:37.585Z,98871.29
2023-10-18T07:43:09.313Z,98868.84
2023-10-18T07:45:37.958Z,98861.69
2023-10-18T07:48:07.221Z,98860.15
2023-10-18T07:50:41.803Z,98854.30
2023-10-18T07:53:13.870Z,98850.88
2023-10-18T07:55:44.977Z,98851.42
2023-10-18T07:58:19.638Z,98845.33
2023-10-18T08:01:03.832Z,98844.69
2023-10-18T08:03:33.762Z,98844.33
2023-10-18T08:06:08.385Z,98844.45
2023-10-18T08:08:37.975Z,98845.39
2023-10-18T08:11:13.384Z,98847.08
2023-10-18T08:13:46.700Z,98847.16
2023-10-18T08:16:21.880Z,98845.12
2023-10-18T08:19:00.902Z,98842.45
2023-10-18T08:21:38.930Z,98840.95
2023-10-18T08:24:20.876Z,98840.27
2023-10-18T08:26:49.865Z,98844.74
2023-10-18T08:29:19.136Z,98843.57
2023-10-18T08:31:57.837Z,98842.33
2023-10-18T08:34:26.990Z,98841.70
2023-10-18T08:37:06.024Z,98841.25
2023-10-18T08:39:34.672Z,98836.16
2023-10-18T08:42:17.908Z,98833.97
2023-10-18T08:44:46.873Z,98828.54
2023-10-18T08:47:18.893Z,98829.30
2023-10-18T08:49:56.214Z,98830.45
2023-10-18T08:52:25.597Z,98829.58
2023-10-18T08:54:56.719Z,98827.29
2023-10-18T08:57:38.917Z,98817.52
2023-10-18T09:00:26.729Z,98816.25
2023-10-18T09:02:56.027Z,98812.77
2023-10-18T09:05:27.063Z,98816.30
2023-10-18T09:08:07.084Z,98815.98
2023-10-18T09:10:43.416Z,98812.73
2023-10-18T09:13:18.724Z,98812.98
2023-10-18T09:16:00.236Z,98808.30
2023-10-18T09:18:35.927Z,98806.95
2023-10-18T09:21:14.209Z,98804.25
2023-10-18T09:23:43.071Z,98796.12
2023-10-18T09:26:23.053Z,98792.25
2023-10-18T09:32:34.323Z,98792.90
2023-10-18T09:35:15.722Z,98786.52
2023-10-18T09:38:01.709Z,98787.04
2023-10-18T09:40:44.977Z,98782.34
2023-10-18T09:43:28.271Z,98775.76
2023-10-18T09:46:20.945Z,98771.33
2023-10-18T09:49:00.116Z,98763.95
2023-10-18T09:51:37.934Z,98759.01
2023-10-18T09:54:17.095Z,98755.48
2023-10-18T09:57:00.664Z,98751.38
2023-10-18T10:00:07.687Z,98746.21
2023-10-18T10:02:54.740Z,98741.96
2023-10-18T10:05:27.506Z,98742.73
2023-10-18T10:08:13.017Z,98737.55
2023-10-18T10:11:02.779Z,98735.71
2023-10-18T10:13:41.715Z,98732.59
2023-10-18T10:16:28.942Z,98730.19
2023-10-18T10:19:21.716Z,98725.86
2023-10-18T10:22:25.730Z,98723.62
2023-10-18T10:25:42.723Z,98713.72
2023-10-18T10:29:11.738Z,98710.59
2023-10-18T10:32:10.798Z,98705.20
2023-10-18T10:34:48.227Z,98701.20
2023-10-18T10:37:26.960Z,98699.98
2023-10-18T10:40:42.837Z,98691.98
2023-10-18T10:43:27.987Z,98684.84
2023-10-18T10:46:03.933Z,98680.33
2023-10-18T10:48:55.337Z,98675.98
2023-10-18T10:51:49.299Z,98666.77
2023-10-18T10:54:32.431Z,98667.98
2023-10-18T10:57:12.892Z,98668.52
2023-10-18T10:59:59.643Z,98665.56
2023-10-18T11:02:42.692Z,98659.31
2023-10-18T11:05:26.895Z,98655.48
2023-10-18T11:07:58.167Z,98652.52
2023-10-18T11:10:41.926Z,98650.80
2023-10-18T11:13:16.293Z,98644.54
2023-10-18T11:15:52.306Z,98641.23
2023-10-18T11:18:36.308Z,98645.77
2023-10-18T11:21:20.640Z,98647.69
2023-10-18T11:24:04.408Z,98644.05
2023-10-18T11:26:42.599Z,98645.95
2023-10-18T11:29:14.650Z,98646.99
2023-10-18T11:31:46.872Z,98643.69
2023-10-18T11:34:23.245Z,98639.70
2023-10-18T11:36:52.065Z,98637.79
2023-10-18T11:39:20.855Z,98633.77
2023-10-18T11:41:54.883Z,98626.65
2023-10-18T11:44:33.301Z,98625.25
2023-10-18T11:47:20.787Z,98624.55
2023-10-18T11:49:58.778Z,98628.38
2023-10-18T11:52:28.013Z,98625.43
2023-10-18T11:55:16.416Z,98617.43
2023-10-18T11:57:47.889Z,98612.21
2023-10-18T12:00:25.883Z,98612.73
2023-10-18T12:03:17.265Z,98608.38
2023-10-18T12:05:46.112Z,98599.53
2023-10-18T12:08:14.994Z,98598.66
2023-10-18T12:10:43.557Z,98595.02
2023-10-18T12:13:15.095Z,98592.77
2023-10-18T12:15:44.155Z,98589.48
2023-10-18T12:18:15.577Z,98583.03
2023-10-18T12:20:44.845Z,98579.04
2023-10-18T12:23:17.129Z,98578.34
2023-10-18T12:25:47.128Z,98578.52
2023-10-18T12:28:30.711Z,98574.71
2023-10-18T12:31:02.749Z,98570.01
2023-10-18T12:33:34.852Z,98566.36
2023-10-18T12:36:09.527Z,98561.84
2023-10-18T12:38:40.400Z,98558.02
2023-10-18T12:41:19.712Z,98555.27
2023-10-18T12:43:49.041Z,98552.14
2023-10-18T12:46:17.930Z,98548.30
2023-10-18T12:48:46.988Z,98544.80
2023-10-18T12:51:15.928Z,98538.91
2023-10-18T12:53:49.493Z,98535.80
2023-10-18T12:56:39.585Z,98535.45
2023-10-18T12:59:10.876Z,98530.41
2023-10-18T13:01:47.879Z,98527.11
2023-10-18T13:04:20.117Z,98520.17
2023-10-18T13:06:51.876Z,98517.22
2023-10-18T13:09:20.868Z,98516.02
2023-10-18T13:12:02.218Z,98512.36
2023-10-18T13:14:35.580Z,98506.09
2023-10-18T13:17:07.211Z,98500.35
2023-10-18T13:19:39.868Z,98497.39
2023-10-18T13:22:48.883Z,98493.41
2023-10-18T13:25:27.374Z,98487.30
2023-10-18T13:27:56.242Z,98486.27
2023-10-18T13:30:54.204Z,98487.83
2023-10-18T13:33:23.089Z,98483.48
2023-10-18T13:35:52.662Z,98479.67
2023-10-18T13:38:25.258Z,98477.76
2023-10-18T13:40:54.316Z,98473.42
2023-10-18T13:43:26.014Z,98471.87
2023-10-18T13:46:01.876Z,98468.05
2023-10-18T13:48:31.659Z,98460.05
2023-10-18T13:51:00.460Z,98459.71
2023-10-18T13:53:30.345Z,98457.64
2023-10-18T13:56:00.703Z,98455.21
2023-10-18T13:58:33.013Z,98452.94
2023-10-18T14:01:06.948Z,98449.99
2023-10-18T14:03:39.388Z,98446.70
2023-10-18T14:06:11.837Z,98441.30
2023-10-18T14:08:42.845Z,98436.77
2023-10-18T14:11:14.635Z,98431.55
2023-10-18T14:13:48.624Z,98431.05
2023-10-18T14:16:20.534Z,98428.25
2023-10-18T14:18:50.079Z,98426.36
2023-10-18T14:21:20.969Z,98428.27
2023-10-18T14:23:54.154Z,98429.86
2023-10-18T14:26:26.364Z,98422.73
2023-10-18T14:28:59.679Z,98422.58
2023-10-18T14:31:28.761Z,98422.75
2023-10-18T14:34:04.280Z,98420.48
2023-10-18T14:36:34.154Z,98419.11
2023-10-18T14:39:04.831Z,98417.22
2023-10-18T14:41:34.329Z,98414.45
2023-10-18T14:44:03.473Z,98410.48
2023-10-18T14:46:32.917Z,98411.34
2023-10-18T14:49:02.141Z,98409.45
2023-10-18T14:51:31.191Z,98408.58
2023-10-18T14:53:59.737Z,98408.42
2023-10-18T14:56:28.409Z,98409.13
2023-10-18T14:58:58.258Z,98410.17
2023-10-18T15:01:28.129Z,98406.38
2023-10-18T15:03:58.206Z,98400.65
2023-10-18T15:06:26.966Z,98396.66
2023-10-18T15:08:56.713Z,98398.41
2023-10-18T15:11:25.405Z,98397.90
2023-10-18T15:13:54.904Z,98394.42
2023-10-18T15:16:31.299Z,98393.56
2023-10-18T15:19:00.127Z,98386.45
2023-10-18T15:21:31.828Z,98386.63
2023-10-18T15:24:00.390Z,98386.64
2023-10-18T15:26:31.328Z,98383.88
2023-10-18T15:29:01.643Z,98383.52
2023-10-18T15:31:30.420Z,98386.13
2023-10-18T15:33:59.750Z,98387.51
2023-10-18T15:36:30.201Z,98384.02
2023-10-18T15:38:58.855Z,98383.30
2023-10-18T15:41:28.254Z,98378.27
2023-10-18T15:44:02.035Z,98374.79
2023-10-18T15:46:38.700Z,98375.13
2023-10-18T15:49:08.398Z,98375.46
2023-10-18T15:51:37.464Z,98376.14
2023-10-18T15:54:12.240Z,98372.65
2023-10-18T15:56:41.234Z,98371.25
2023-10-18T15:59:10.343Z,98370.37
2023-10-18T16:01:51.426Z,98371.04
2023-10-18T16:04:24.702Z,98367.55
2023-10-18T16:06:57.512Z,98367.70
2023-10-18T16:09:29.895Z,98365.08
2023-10-18T16:12:04.162Z,98366.10
2023-10-18T16:14:32.853Z,98363.65
2023-10-18T16:17:06.101Z,98361.56
2023-10-18T16:19:36.656Z,98359.12
2023-10-18T16:22:05.496Z,98354.58
2023-10-18T16:24:34.343Z,98351.80
2023-10-18T16:27:05.892Z,98349.73
2023-10-18T16:29:35.084Z,98345.73
2023-10-18T16:32:04.125Z,98342.77
2023-10-18T16:35:22.739Z,98345.35
2023-10-18T16:37:52.163Z,98342.91
2023-10-18T16:40:21.143Z,98344.60
2023-10-18T16:42:50.033Z,98343.54
2023-10-18T16:45:21.429Z,98347.11
2023-10-18T16:47:50.268Z,98346.38
2023-10-18T16:50:20.525Z,98347.53
2023-10-18T16:52:49.190Z,98343.52
2023-10-18T16:55:19.456Z,98346.94
2023-10-18T16:57:52.772Z,98340.36
2023-10-18T17:00:21.501Z,98340.54
2023-10-18T17:03:06.341Z,98342.95
2023-10-18T17:06:18.504Z,98339.13
2023-10-18T17:09:10.496Z,98340.83
2023-10-18T17:11:56.089Z,98339.24
2023-10-18T17:14:41.415Z,98334.57
2023-10-18T17:17:30.681Z,98334.52
2023-10-18T17:20:28.828Z,98327.05
2023-10-18T17:23:18.903Z,98321.48
2023-10-18T17:26:28.149Z,98323.35
2023-10-18T17:29:25.313Z,98323.84
2023-10-18T17:32:23.999Z,98322.64
2023-10-18T17:35:24.441Z,98317.98
2023-10-18T17:38:27.186Z,98314.52
2023-10-18T17:41:25.854Z,98313.81
2023-10-18T17:44:05.714Z,98312.92
2023-10-18T17:46:36.595Z,98312.72
2023-10-18T17:49:05.723Z,98310.95
2023-10-18T17:51:34.345Z,98313.00
2023-10-18T17:54:06.162Z,98312.28
2023-10-18T17:56:36.613Z,98308.79
2023-10-18T17:59:11.267Z,98305.64
2023-10-18T18:01:39.833Z,98299.73
2023-10-18T18:04:10.413Z,98296.95
2023-10-18T18:06:39.081Z,98295.91
2023-10-18T18:09:07.929Z,98297.46
2023-10-18T18:11:37.251Z,98293.99
2023-10-18T18:14:07.668Z,98291.92
2023-10-18T18:16:36.984Z,98286.92
2023-10-18T18:19:06.715Z,98280.14
2023-10-18T18:21:36.913Z,98276.64
2023-10-18T18:24:06.111Z,98274.66
2023-10-18T18:26:46.338Z,98276.81
2023-10-18T18:29:21.066Z,98277.44
2023-10-18T18:31:49.716Z,98273.44
2023-10-18T18:34:21.812Z,98268.06
2023-10-18T18:36:50.655Z,98266.86
2023-10-18T18:39:22.362Z,98267.36
2023-10-18T18:41:52.168Z,98264.61
2023-10-18T18:44:20.853Z,98261.51
2023-10-18T18:46:49.430Z,98256.84
2023-10-18T18:49:18.093Z,98253.34
2023-10-18T18:51:46.595Z,98252.77
2023-10-18T18:54:16.285Z,98252.92
2023-10-18T18:56:44.897Z,98250.90
2023-10-18T18:59:13.471Z,98248.34
2023-10-18T19:01:43.258Z,98248.51
2023-10-18T19:04:13.432Z,98245.44
2023-10-18T19:06:42.367Z,98243.53
2023-10-18T19:09:11.058Z,98240.21
2023-10-18T19:11:39.717Z,98236.59
2023-10-18T19:14:08.857Z,98233.11
2023-10-18T19:16:37.847Z,98227.37
2023-10-18T19:19:06.409Z,98225.27
2023-10-18T19:21:35.442Z,98223.83
2023-10-18T19:24:04.708Z,98218.08
2023-10-18T19:26:33.477Z,98213.55
2023-10-18T19:29:02.047Z,98209.92
2023-10-18T19:31:32.965Z,98210.12
2023-10-18T19:34:01.513Z,98213.64
2023-10-18T19:36:30.439Z,98210.73
2023-10-18T19:39:00.640Z,98210.08
2023-10-18T19:41:29.280Z,98207.89
2023-10-18T19:43:58.210Z,98199.94
2023-10-18T19:46:31.497Z,98190.26
2023-10-18T19:49:01.127Z,98189.73
2023-10-18T19:51:31.220Z,98192.30
2023-10-18T19:54:02.392Z,98196.55
2023-10-18T19:56:31.037Z,98193.92
2023-10-18T19:58:59.668Z,98193.35
2023-10-18T20:01:29.001Z,98191.27
2023-10-18T20:03:58.088Z,98188.52
2023-10-18T20:06:28.899Z,98192.65
2023-10-18T20:08:58.621Z,98191.30
2023-10-18T20:11:27.279Z,98189.41
2023-10-18T20:13:55.802Z,98187.86
2023-10-18T20:16:26.807Z,98186.66
2023-10-18T20:18:55.297Z,98177.30
2023-10-18T20:21:27.429Z,98175.02
2023-10-18T20:23:56.962Z,98172.42
2023-10-18T20:26:26.124Z,98166.05
2023-10-18T20:28:54.789Z,98159.00
2023-10-18T20:31:25.164Z,98152.09
2023-10-18T20:33:54.417Z,98156.25
2023-10-18T20:36:23.058Z,98156.45
2023-10-18T20:38:51.728Z,98150.78
2023-10-18T20:41:20.364Z,98149.41
2023-10-18T20:43:49.169Z,98142.52
2023-10-18T20:46:21.010Z,98138.88
2023-10-18T20:48:55.938Z,98139.88
2023-10-18T20:51:25.220Z,98137.63
2023-10-18T20:53:54.318Z,98130.38
2023-10-18T20:56:24.114Z,98128.96
2023-10-18T20:58:56.959Z,98122.35
2023-10-18T21:01:36.146Z,98119.58
2023-10-18T21:04:07.526Z,98115.98
2023-10-18T21:06:40.254Z,98116.66
2023-10-18T21:09:14.288Z,98118.07
2023-10-18T21:11:44.694Z,98111.40
2023-10-18T21:14:17.973Z,98105.88
2023-10-18T21:16:47.437Z,98099.45
2023-10-18T21:19:16.576Z,98099.72
2023-10-18T21:21:45.111Z,98096.59
2023-10-18T21:24:13.610Z,98087.92
2023-10-18T21:26:42.726Z,98086.78
2023-10-18T21:29:11.351Z,98079.09
2023-10-18T21:31:41.274Z,98079.22
2023-10-18T21:34:10.164Z,98077.30
2023-10-18T21:36:38.686Z,98073.15
2023-10-18T21:39:07.901Z,98070.75
2023-10-18T21:41:38.749Z,98069.37
2023-10-18T21:44:07.324Z,98067.58
2023-10-18T21:46:36.161Z,98060.52
2023-10-18T21:49:04.822Z,98057.94
2023-10-18T21:51:33.560Z,98053.81
2023-10-18T21:54:02.781Z,98055.34
2023-10-18T21:56:31.251Z,98050.52
2023-10-18T21:59:00.747Z,98045.54
2023-10-18T22:01:42.020Z,98044.13
2023-10-18T22:04:11.071Z,98037.39
2023-10-18T22:06:40.563Z,98031.04
2023-10-18T22:09:25.627Z,98030.52
2023-10-18T22:11:55.490Z,98025.88
2023-10-18T22:14:27.307Z,98024.85
2023-10-18T22:16:56.824Z,98020.54
2023-10-18T22:19:31.991Z,98017.59
2023-10-18T22:22:13.430Z,98013.10
2023-10-18T22:24:48.844Z,98010.13
2023-10-18T22:27:18.793Z,98004.10
2023-10-18T22:29:51.836Z,98008.02
2023-10-18T22:32:26.169Z,98007.59
2023-10-18T22:34:55.206Z,98005.93
2023-10-18T22:37:24.133Z,98007.92
2023-10-18T22:40:00.066Z,97995.86
2023-10-18T22:42:40.468Z,97993.27
2023-10-18T22:45:11.136Z,97991.77
2023-10-18T22:47:41.898Z,97985.97
2023-10-18T22:50:34.273Z,97988.25
2023-10-18T22:53:31.634Z,97987.80
2023-10-18T22:56:01.496Z,97985.28
2023-10-18T22:58:31.335Z,97977.07
2023-10-18T23:01:02.599Z,97977.44
2023-10-18T23:03:33.610Z,97971.92
2023-10-18T23:06:09.097Z,97970.88
2023-10-18T23:08:46.080Z,97970.66
2023-10-18T23:11:37.264Z,97964.27
2023-10-18T23:14:25.167Z,97959.12
2023-10-18T23:16:56.200Z,97954.82
2023-10-18T23:19:27.825Z,97948.92
2023-10-18T23:22:17.727Z,97942.25
2023-10-18T23:24:49.295Z,97939.55
2023-10-18T23:27:37.736Z,97932.71
2023-10-18T23:30:34.111Z,97929.98
2023-10-18T23:33:11.682Z,97921.05
2023-10-18T23:35:49.424Z,97920.20
2023-10-18T23:38:36.846Z,97915.02
2023-10-18T23:41:05.877Z,97912.10
2023-10-18T23:43:47.273Z,97906.27
2023-10-18T23:46:27.938Z,97900.07
2023-10-18T23:49:16.452Z,97897.48
2023-10-18T23:51:55.302Z,97888.71
2023-10-18T23:54:24.379Z,97886.33
2023-10-18T23:56:52.892Z,97882.70
2023-10-18T23:59:30.908Z,97879.10
